createdAt,value
2023-06-21T00:01:21.819Z,101294.53
2023-06-21T00:03:53.611Z,101302.78
2023-06-21T00:17:32.760Z,101298.09
2023-06-21T00:20:00.540Z,101291.53
2023-06-21T00:22:47.686Z,101294.72
2023-06-21T00:25:16.475Z,101284.31
2023-06-21T00:28:07.191Z,101291.09
2023-06-21T00:30:46.666Z,101295.50
2023-06-21T00:36:10.341Z,101294.44
2023-06-21T00:38:59.938Z,101306.47
2023-06-21T00:50:11.764Z,101314.69
2023-06-21T00:52:46.229Z,101318.91
2023-06-21T00:55:20.683Z,101317.19
2023-06-21T00:57:58.439Z,101320.75
2023-06-21T01:00:26.594Z,101327.25
2023-06-21T01:03:35.169Z,101330.00
2023-06-21T01:06:28.909Z,101336.75
2023-06-21T01:09:17.370Z,101342.25
2023-06-21T01:11:59.373Z,101346.03
2023-06-21T01:14:45.467Z,101343.28
2023-06-21T01:17:15.704Z,101343.09
2023-06-21T01:19:58.913Z,101348.09
2023-06-21T01:26:16.145Z,101350.59
2023-06-21T01:41:31.165Z,101350.78
2023-06-21T01:43:58.408Z,101366.19
2023-06-21T01:47:11.818Z,101362.22
2023-06-21T01:52:15.151Z,101353.81
2023-06-21T01:54:45.506Z,101349.56
2023-06-21T01:57:16.261Z,101353.34
2023-06-21T01:59:55.252Z,101358.81
2023-06-21T02:02:22.917Z,101370.63
2023-06-21T02:05:06.846Z,101363.41
2023-06-21T02:07:51.805Z,101368.69
2023-06-21T02:10:20.369Z,101374.63
2023-06-21T02:12:59.098Z,101372.25
2023-06-21T02:15:25.726Z,101372.66
2023-06-21T02:18:17.766Z,101383.63
2023-06-21T02:23:25.860Z,101389.72
2023-06-21T02:25:53.826Z,101388.44
2023-06-21T02:39:27.228Z,101413.09
2023-06-21T02:41:55.905Z,101411.63
2023-06-21T02:44:25.837Z,101408.88
2023-06-21T02:46:54.997Z,101410.75
2023-06-21T02:49:21.744Z,101406.72
2023-06-21T02:51:59.155Z,101413.63
2023-06-21T02:54:28.543Z,101417.03
2023-06-21T02:57:00.495Z,101422.69
2023-06-21T02:59:32.589Z,101430.06
2023-06-21T03:02:01.064Z,101430.72
2023-06-21T03:04:35.266Z,101418.25
2023-06-21T03:09:47.281Z,101434.47
2023-06-21T03:12:14.864Z,101434.47
2023-06-21T03:14:47.138Z,101433.38
2023-06-21T03:17:17.332Z,101430.19
2023-06-21T03:19:59.001Z,101435.06
2023-06-21T03:22:27.498Z,101439.47
2023-06-21T03:24:56.149Z,101445.44
2023-06-21T03:27:28.170Z,101445.81
2023-06-21T03:29:59.418Z,101449.59
2023-06-21T03:32:31.046Z,101452.31
2023-06-21T03:35:02.799Z,101463.28
2023-06-21T03:37:35.684Z,101468.13
2023-06-21T03:40:09.704Z,101473.78
2023-06-21T03:42:46.052Z,101483.88
2023-06-21T03:45:13.667Z,101490.88
2023-06-21T03:47:42.745Z,101488.34
2023-06-21T03:50:11.129Z,101491.53
2023-06-21T03:52:43.311Z,101487.47
2023-06-21T03:55:17.092Z,101482.22
2023-06-21T03:57:44.056Z,101491.06
2023-06-21T04:00:16.256Z,101496.38
2023-06-21T04:02:43.944Z,101494.47
2023-06-21T04:05:16.810Z,101493.88
2023-06-21T04:07:44.365Z,101504.84
2023-06-21T04:10:16.791Z,101507.59
2023-06-21T04:12:45.284Z,101512.22
2023-06-21T04:15:13.165Z,101510.50
2023-06-21T04:17:42.549Z,101513.25
2023-06-21T04:20:16.483Z,101506.72
2023-06-21T04:25:33.198Z,101511.94
2023-06-21T04:28:01.223Z,101515.72
2023-06-21T04:30:29.408Z,101513.66
2023-06-21T04:35:54.566Z,101526.16
2023-06-21T05:03:19.231Z,101516.78
2023-06-21T05:09:36.883Z,101541.69
2023-06-21T05:12:12.799Z,101538.38
2023-06-21T05:22:14.915Z,101537.00
2023-06-21T05:25:13.806Z,101538.81
2023-06-21T05:27:40.808Z,101542.41
2023-06-21T05:35:42.115Z,101553.31
2023-06-21T05:44:05.039Z,101561.06
2023-06-21T05:47:01.112Z,101562.94
2023-06-21T05:49:43.497Z,101561.94
2023-06-21T05:52:10.393Z,101570.84
2023-06-21T05:54:45.680Z,101574.69
2023-06-21T05:57:12.792Z,101578.03
2023-06-21T05:59:47.797Z,101577.66
2023-06-21T06:02:15.933Z,101584.03
2023-06-21T06:04:50.513Z,101591.25
2023-06-21T06:07:21.226Z,101593.38
2023-06-21T06:09:51.735Z,101599.59
2023-06-21T06:12:22.612Z,101602.38
2023-06-21T06:14:55.583Z,101607.66
2023-06-21T06:17:33.301Z,101613.31
2023-06-21T06:20:00.288Z,101614.97
2023-06-21T06:22:28.203Z,101621.53
2023-06-21T06:24:55.274Z,101619.63
2023-06-21T06:27:21.976Z,101617.72
2023-06-21T06:29:50.196Z,101630.22
2023-06-21T06:32:20.287Z,101625.59
2023-06-21T06:34:47.342Z,101638.69
2023-06-21T06:37:32.430Z,101637.66
2023-06-21T06:39:59.988Z,101642.78
2023-06-21T06:42:30.181Z,101644.47
2023-06-21T06:45:05.488Z,101640.03
2023-06-21T06:50:14.541Z,101649.75
2023-06-21T06:52:42.016Z,101650.19
2023-06-21T06:55:08.945Z,101654.00
2023-06-21T06:57:56.143Z,101653.34
2023-06-21T07:00:30.899Z,101654.47
2023-06-21T07:11:32.557Z,101675.31
2023-06-21T07:14:04.813Z,101670.50
2023-06-21T07:19:23.124Z,101682.25
2023-06-21T07:24:48.388Z,101674.09
2023-06-21T07:27:15.218Z,101686.78
2023-06-21T07:29:45.525Z,101693.81
2023-06-21T07:32:30.980Z,101690.44
2023-06-21T07:35:00.244Z,101687.44
2023-06-21T07:37:35.307Z,101681.06
2023-06-21T07:40:07.156Z,101683.16
2023-06-21T07:42:40.485Z,101684.91
2023-06-21T07:45:13.073Z,101685.97
2023-06-21T07:47:45.418Z,101691.94
2023-06-21T07:50:22.370Z,101697.28
2023-06-21T07:52:54.903Z,101694.72
2023-06-21T07:55:22.658Z,101695.38
2023-06-21T07:57:56.973Z,101695.19
2023-06-21T08:00:24.882Z,101693.13
2023-06-21T08:02:53.619Z,101687.63
2023-06-21T08:05:21.171Z,101696.47
2023-06-21T08:07:48.219Z,101690.78
2023-06-21T08:10:18.532Z,101692.91
2023-06-21T08:12:49.209Z,101697.13
2023-06-21T08:15:16.978Z,101694.16
2023-06-21T08:17:45.343Z,101699.66
2023-06-21T08:20:12.155Z,101695.63
2023-06-21T08:22:47.083Z,101701.34
2023-06-21T08:25:17.881Z,101703.91
2023-06-21T08:27:46.578Z,101708.31
2023-06-21T08:30:14.224Z,101717.66
2023-06-21T08:32:41.886Z,101711.50
2023-06-21T08:35:09.381Z,101717.66
2023-06-21T08:37:36.424Z,101712.78
2023-06-21T08:40:03.389Z,101722.94
2023-06-21T08:42:30.220Z,101722.25
2023-06-21T08:45:01.505Z,101721.34
2023-06-21T08:47:44.574Z,101718.53
2023-06-21T08:50:22.924Z,101723.84
2023-06-21T08:53:13.993Z,101721.28
2023-06-21T08:56:18.900Z,101727.91
2023-06-21T09:14:04.500Z,101740.03
2023-06-21T09:16:44.356Z,101743.34
2023-06-21T09:19:26.848Z,101745.91
2023-06-21T09:24:52.350Z,101735.44
2023-06-21T09:27:22.796Z,101741.13
2023-06-21T09:29:53.644Z,101747.97
2023-06-21T09:32:29.615Z,101747.03
2023-06-21T09:41:22.728Z,101743.72
2023-06-21T09:44:26.585Z,101739.97
2023-06-21T09:47:03.760Z,101744.31
2023-06-21T09:49:30.420Z,101746.97
2023-06-21T09:51:57.877Z,101745.59
2023-06-21T09:54:24.511Z,101750.78
2023-06-21T09:56:53.177Z,101744.03
2023-06-21T10:02:12.434Z,101743.19
2023-06-21T10:05:05.552Z,101753.13
2023-06-21T10:08:02.248Z,101754.88
2023-06-21T10:10:52.013Z,101760.94
2023-06-21T10:13:25.772Z,101758.34
2023-06-21T10:17:02.142Z,101769.78
2023-06-21T10:32:28.162Z,101767.50
2023-06-21T10:35:32.554Z,101778.78
2023-06-21T10:38:11.439Z,101780.78
2023-06-21T10:40:57.923Z,101778.41
2023-06-21T10:43:37.956Z,101784.88
2023-06-21T10:46:17.078Z,101778.50
2023-06-21T10:49:16.472Z,101782.97
2023-06-21T10:52:14.483Z,101776.31
2023-06-21T10:58:22.164Z,101780.94
2023-06-21T11:00:53.268Z,101789.94
2023-06-21T11:06:47.372Z,101801.78
2023-06-21T11:09:26.190Z,101799.13
2023-06-21T11:21:06.915Z,101807.09
2023-06-21T11:30:14.042Z,101809.69
2023-06-21T11:33:37.491Z,101811.50
2023-06-21T11:36:24.314Z,101813.63
2023-06-21T11:39:21.096Z,101816.13
2023-06-21T11:41:49.155Z,101809.94
2023-06-21T11:44:21.936Z,101814.53
2023-06-21T11:46:55.144Z,101809.50
2023-06-21T11:49:23.149Z,101806.16
2023-06-21T11:55:49.607Z,101803.22
2023-06-21T12:37:13.817Z,101842.16
2023-06-21T13:49:35.174Z,101879.13
2023-06-21T13:52:28.587Z,101870.06
2023-06-21T14:50:18.981Z,101897.06
2023-06-21T14:56:41.712Z,101899.31
2023-06-21T14:59:19.313Z,101898.56
2023-06-21T15:01:54.322Z,101899.09
2023-06-21T15:04:33.380Z,101905.00
2023-06-21T15:07:00.578Z,101909.72
2023-06-21T15:09:27.138Z,101907.66
2023-06-21T15:11:55.098Z,101913.44
2023-06-21T15:14:21.985Z,101917.19
2023-06-21T15:23:10.899Z,101920.19
2023-06-21T16:04:33.297Z,101917.84
2023-06-21T16:07:09.201Z,101926.31
2023-06-21T16:09:36.745Z,101925.97
2023-06-21T16:37:23.059Z,101927.59
2023-06-21T16:39:49.894Z,101919.97
2023-06-21T16:49:07.396Z,101937.91
2023-06-21T16:54:39.547Z,101936.00
2023-06-21T16:57:17.313Z,101943.25
2023-06-21T16:59:48.411Z,101939.13
2023-06-21T17:02:19.850Z,101934.16
2023-06-21T17:04:52.943Z,101940.59
2023-06-21T17:07:21.064Z,101944.31
2023-06-21T17:09:48.651Z,101946.00
2023-06-21T17:17:33.297Z,101953.84
2023-06-21T17:23:12.353Z,101962.19
2023-06-21T17:25:54.044Z,101959.13
2023-06-21T17:28:24.588Z,101954.28
2023-06-21T17:34:25.937Z,101954.56
2023-06-21T17:37:11.992Z,101961.28
2023-06-21T17:39:49.946Z,101958.53
2023-06-21T17:42:33.317Z,101968.56
2023-06-21T17:45:02.070Z,101958.53
2023-06-21T17:47:31.320Z,101963.22
2023-06-21T17:49:59.392Z,101955.28
2023-06-21T17:52:42.290Z,101954.03
2023-06-21T17:55:14.369Z,101958.41
2023-06-21T17:57:59.291Z,101962.28
2023-06-21T18:03:34.092Z,101965.09
2023-06-21T18:18:00.188Z,101947.06
2023-06-21T18:20:27.245Z,101953.63
2023-06-21T18:22:57.009Z,101956.75
2023-06-21T18:25:23.670Z,101953.94
2023-06-21T18:27:50.230Z,101949.97
2023-06-21T18:30:16.884Z,101953.56
2023-06-21T18:32:43.754Z,101947.59
2023-06-21T18:35:10.980Z,101948.97
2023-06-21T18:37:39.198Z,101949.19
2023-06-21T18:40:09.252Z,101947.28
2023-06-21T18:45:46.553Z,101938.16
2023-06-21T18:53:51.550Z,101932.34
2023-06-21T18:56:19.301Z,101933.63
2023-06-21T19:49:02.700Z,101918.63
2023-06-21T19:51:32.574Z,101926.03
2023-06-21T19:54:55.141Z,101926.66
2023-06-21T20:01:52.447Z,101935.97
2023-06-21T20:04:33.809Z,101945.06
2023-06-21T20:07:03.095Z,101947.00
2023-06-21T20:10:00.194Z,101953.78
2023-06-21T20:13:18.174Z,101954.16
2023-06-21T20:15:49.618Z,101958.16
2023-06-21T20:18:31.825Z,101959.00
2023-06-21T20:21:23.910Z,101961.28
2023-06-21T20:23:59.217Z,101962.13
2023-06-21T20:30:43.741Z,101964.81
2023-06-21T20:33:12.068Z,101964.78
2023-06-21T20:35:39.045Z,101969.44
2023-06-21T20:38:06.224Z,101973.00
2023-06-21T20:40:52.661Z,101979.75
2023-06-21T20:48:58.986Z,101990.84
2023-06-21T20:51:51.155Z,101995.03
2023-06-21T20:54:39.257Z,102000.88
2023-06-21T20:57:06.424Z,102003.56
2023-06-21T20:59:56.241Z,102005.88
2023-06-21T21:02:21.905Z,102004.78
2023-06-21T21:05:01.632Z,102010.69
2023-06-21T21:10:13.970Z,102023.31
2023-06-21T21:13:14.262Z,102029.66
2023-06-21T21:16:08.565Z,102025.88
2023-06-21T21:18:42.240Z,102041.72
2023-06-21T21:21:21.743Z,102043.59
2023-06-21T21:23:50.367Z,102043.09
2023-06-21T21:26:18.291Z,102038.13
2023-06-21T21:28:46.498Z,102031.88
2023-06-21T21:31:14.893Z,102033.69
2023-06-21T21:33:47.001Z,102028.47
2023-06-21T21:36:19.019Z,102017.88
2023-06-21T21:41:26.420Z,102022.72
2023-06-21T21:43:54.543Z,102016.34
2023-06-21T21:49:52.638Z,102026.63
2023-06-21T22:17:16.729Z,102052.09
2023-06-21T22:20:16.776Z,102045.28
2023-06-21T22:26:28.598Z,102044.75
2023-06-21T22:30:50.120Z,102036.91
2023-06-21T22:32:18.936Z,102040.69
2023-06-21T22:37:44.415Z,102044.94
2023-06-21T22:40:16.823Z,102046.34
2023-06-21T22:42:51.441Z,102058.41
2023-06-21T22:45:19.410Z,102054.81
2023-06-21T22:47:48.994Z,102063.63
2023-06-21T22:50:20.335Z,102061.41
2023-06-21T22:52:53.941Z,102055.44
2023-06-21T22:55:25.728Z,102061.78
2023-06-21T22:58:05.192Z,102047.13
2023-06-21T23:01:09.177Z,102052.50
2023-06-21T23:03:45.915Z,102045.06
2023-06-21T23:09:20.397Z,102058.19
2023-06-21T23:20:34.593Z,102058.19
2023-06-21T23:23:52.673Z,102055.44
2023-06-21T23:26:46.394Z,102069.88
2023-06-21T23:29:14.310Z,102062.59
2023-06-21T23:31:54.320Z,102070.72
2023-06-21T23:34:43.669Z,102062.47
2023-06-21T23:37:41.331Z,102060.97
2023-06-21T23:40:31.219Z,102077.13
2023-06-21T23:43:01.970Z,102066.72
2023-06-21T23:45:30.362Z,102071.34
2023-06-21T23:48:03.367Z,102067.25
2023-06-21T23:50:34.584Z,102068.09
2023-06-21T23:53:35.008Z,102067.63
2023-06-21T23:56:23.033Z,102082.91
2023-06-21T23:59:19.425Z,102081.03
